Aérodrome :







RETROUVEZ-NOUS SUR...

 
LOGIN :

S'inscrire | Disclaimer

   EN    FR    IT 

 









Légende :    VFR   VFR Marginal   IFR   IFR Intensif   IFR Très Intensif
Visi : 
Plafond : 
>= 8 km
>= 3000ft
5 à 8 km
1000 à 3000 ft
1500m à 5 km
500 à 1000 ft
800 à 1500m
200 à 500 ft
< 800m
< 200 ft
Symboles :   Orages  Brouillard  Fortes neiges  Fortes précipitations  Vent > 20 kt






- Altitude de l'aérodrome : 270 ft
- Code IATA : YMX


CYMX - Montreal International Mirabel

DERNIER METAR :
  • 192100Z 26008G16KT 230V310 30SM FEW060TCU BKN100 24/11 A2962 RMK TCU2AC4 SLP031 DENSITY ALT 1700FT

METARs EXPIRÉS :
  • 192000Z 26006G18KT 230V330 30SM SCT058TCU BKN100 24/12 A2962 RMK TCU3AC2 SLP031 DENSITY ALT 1800FT
  • 191900Z 26010G21KT 220V310 30SM SCT055TCU SCT092 24/11 A2961 RMK TCU3AC1 SLP027 DENSITY ALT 1800FT

TAF TAF CYMX
Valide du 19 à 18h jusqu'au 20 à 18h UTC


191738Z 1918/2018 25015G25KT P6SM BKN050 BKN090
TEMPO 1918/1924 P6SM -SHRA VCTS OVC050CB
FM200000 27010KT P6SM SCT070
BECMG 2002/2004 VRB03KT
FM201200 26005KT P6SM SKC
FM201500 24012KT P6SM FEW050 RMK NXT FCST BY 200000Z
FIR CZUL / Amérique du Nord



MET'MAP, la Météo Aéronautique d'un coup d'oeil ! - Copyright ORBIFLY Décembre 2007 - Disclaimer

ORBIFLY MET'MAP TEAM :

Programmation & Développement : Alexandra Zaïnal
Sur une idée originale de : Baudouin d'Aumeries
Assistance à la programmation : Marc-Olivier Méhu
Soutien technique & logistique : Manuel Goepfert

Contact : metmap@orbifly.com




SOURCES & CREDITS :

   NOAA